Veendam — PHEO — position and weather

sailwx.info

Track history (hours):
 
Tides and Currents Weather Stations Pressure Air Temp Water Temp Dewpoint Dewpoint Depression Visibility Wind Speed Wind Dir Waves Ship Positions

Veendam (Netherlands)

Last reported at 2019-Jul-22 13:59 UTC. Time now 2019-Jul-22 14:22 UTC.
Position N 43°33' E 010°18'.

Type: Ship. MMSI: 246506000.

Date/timePositionNaut miles runAvg speedWind from/ knotsBaromVisibWave heightAir tempDewpointWater temp
2019-Jul-22 13:59N 43°33' E 010°18'0 0.0
2019-Jul-22 13:29N 43°33' E 010°18'0 0.0
2019-Jul-22 12:59N 43°33' E 010°18'0 0.0
2019-Jul-22 12:29N 43°33' E 010°18'0 0.0
2019-Jul-22 11:59N 43°33' E 010°18'0 0.0
2019-Jul-22 11:29N 43°33' E 010°18'0 0.0
2019-Jul-22 10:59N 43°33' E 010°18'0 0.0
2019-Jul-22 10:29N 43°33' E 010°18'0 0.0
2019-Jul-22 09:59N 43°33' E 010°18'0 0.0
2019-Jul-22 09:29N 43°33' E 010°18'0 0.0
2019-Jul-22 08:59N 43°33' E 010°18'0 0.0
2019-Jul-22 08:26N 43°33' E 010°18'0 0.0
2019-Jul-22 07:59N 43°33' E 010°18'0 0.0
2019-Jul-22 07:29N 43°33' E 010°18'0 0.0
2019-Jul-22 06:59N 43°33' E 010°18'0 0.0
2019-Jul-22 06:29N 43°33' E 010°18'0 0.0
2019-Jul-22 05:59N 43°33' E 010°18'0 0.0
2019-Jul-22 05:30N 43°33' E 010°18'1 2.9
2019-Jul-22 05:00N 43°32' E 010°16'5 9.8
2019-Jul-22 04:30N 43°28' E 010°13'510.0
2019-Jul-22 04:01N 43°23' E 010°12'713.9
2019-Jul-22 03:31N 43°16' E 010°09'815.9
2019-Jul-22 03:01N 43°09' E 010°07'713.7
2019-Jul-22 02:30N 43°02' E 010°05'714.0
2019-Jul-22 02:00N 42°55' E 010°03'816.6
2019-Jul-22 01:30N 42°47' E 010°02'816.2
2019-Jul-22 01:00N 42°40' E 010°08'816.7
2019-Jul-22 00:30N 42°33' E 010°15'816.8
2019-Jul-22 00:00N 42°27' E 010°23'816.9
2019-Jul-21 23:30N 42°21' E 010°31'816.2
2019-Jul-21 23:00N 42°14' E 010°37'1016.6
2019-Jul-21 22:26N 42°07' E 010°45'816.3
2019-Jul-21 21:58N 42°02' E 010°53'816.7
2019-Jul-21 21:30N 42°00' E 011°03'916.6
2019-Jul-21 20:58N 41°58' E 011°14'816.4
2019-Jul-21 20:29N 41°57' E 011°25'1115.8
2019-Jul-21 19:46N 42°04' E 011°37'8 0.7
2019-Jul-21 08:43N 42°06' E 011°46'0 0.0
2019-Jul-21 08:13N 42°06' E 011°46'0 0.0
2019-Jul-21 07:58N 42°06' E 011°46'0 0.0
2019-Jul-21 07:28N 42°06' E 011°46'0 0.0
2019-Jul-21 06:58N 42°06' E 011°46'0 0.0
2019-Jul-21 06:28N 42°06' E 011°46'0 0.0
2019-Jul-21 05:55N 42°06' E 011°46'0 0.0
2019-Jul-21 05:28N 42°06' E 011°46'0 0.0
2019-Jul-21 04:58N 42°06' E 011°46'0 0.0
2019-Jul-21 04:25N 42°06' E 011°46'0 0.0
2019-Jul-21 04:00N 42°06' E 011°46'3 3.7
2019-Jul-21 03:18N 42°06' E 011°43'1710.8
2019-Jul-21 01:45N 41°49' E 011°39'413.6
2019-Jul-21 01:28N 41°46' E 011°43'714.1
2019-Jul-21 01:00N 41°42' E 011°49'714.1
2019-Jul-21 00:30N 41°37' E 011°56'714.0
2019-Jul-21 00:00N 41°32' E 012°02'714.0
2019-Jul-20 23:30N 41°27' E 012°09'815.2
2019-Jul-20 23:00N 41°22' E 012°17'816.5
2019-Jul-20 22:30N 41°17' E 012°25'816.7
2019-Jul-20 22:01N 41°14' E 012°36'816.7
2019-Jul-20 21:31N 41°11' E 012°46'816.4
2019-Jul-20 21:00N 41°07' E 012°55'816.4
2019-Jul-20 20:30N 41°03' E 013°05'816.4
2019-Jul-20 20:01N 40°59' E 013°15'816.6
2019-Jul-20 19:30N 40°56' E 013°25'816.1
2019-Jul-20 19:01N 40°51' E 013°33'816.1
2019-Jul-20 18:30N 40°45' E 013°41'816.3
2019-Jul-20 18:00N 40°40' E 013°49'815.8
2019-Jul-20 17:31N 40°38' E 013°59'815.5
2019-Jul-20 17:00N 40°42' E 014°08'713.4
2019-Jul-20 16:30N 40°46' E 014°15'4 7.1
2019-Jul-20 15:58N 40°50' E 014°15'0 0.0
2019-Jul-20 15:28N 40°50' E 014°15'0 0.0
2019-Jul-20 14:58N 40°50' E 014°15'0 0.0
2019-Jul-20 14:28N 40°50' E 014°15'0 0.0
2019-Jul-20 13:58N 40°50' E 014°15'0 0.0
2019-Jul-20 13:28N 40°50' E 014°15'0 0.0
2019-Jul-20 12:58N 40°50' E 014°15'0 0.0
2019-Jul-20 12:28N 40°50' E 014°15'0 0.0
2019-Jul-20 11:58N 40°50' E 014°15'0 0.0
2019-Jul-20 11:28N 40°50' E 014°15'0 0.0
2019-Jul-20 10:58N 40°50' E 014°15'0 0.0
2019-Jul-20 10:28N 40°50' E 014°15'0 0.0
2019-Jul-20 09:58N 40°50' E 014°15'0 0.0
2019-Jul-20 09:28N 40°50' E 014°15'0 0.0
2019-Jul-20 09:00N 40°50' E 014°15'0 0.1
2019-Jul-20 08:29N 40°50' E 014°15'0 0.0
2019-Jul-20 07:59N 40°50' E 014°15'0 0.0
2019-Jul-20 07:29N 40°50' E 014°15'0 0.0
2019-Jul-20 06:59N 40°50' E 014°15'0 0.0
2019-Jul-20 06:29N 40°50' E 014°15'0 0.0
2019-Jul-20 06:00N 40°50' E 014°15'0 0.0
2019-Jul-20 05:31N 40°50' E 014°15'0 1.0
2019-Jul-20 05:01N 40°50' E 014°16'3 6.4
2019-Jul-20 04:30N 40°47' E 014°16'611.2
2019-Jul-20 04:00N 40°42' E 014°14'511.0
2019-Jul-20 03:30N 40°37' E 014°11'510.6
2019-Jul-20 03:00N 40°32' E 014°10'510.8
2019-Jul-20 02:30N 40°27' E 014°13'610.9
2019-Jul-20 02:00N 40°22' E 014°16'611.3
2019-Jul-20 01:31N 40°17' E 014°19'611.5
2019-Jul-20 01:01N 40°12' E 014°23'612.1
2019-Jul-20 00:29N 40°07' E 014°28'611.4
2019-Jul-20 00:01N 40°02' E 014°31'611.2
2019-Jul-19 23:29N 39°57' E 014°34'611.2
2019-Jul-19 22:57N 39°51' E 014°38'5811.8
2019-Jul-19 18:00N 38°60' E 015°14'612.0
2019-Jul-19 17:29N 38°54' E 015°17'612.0
2019-Jul-19 17:00N 38°49' E 015°21'611.8
2019-Jul-19 16:28N 38°44' E 015°25'612.8
2019-Jul-19 16:00N 38°38' E 015°28'713.1
2019-Jul-19 15:30N 38°33' E 015°32'713.0
2019-Jul-19 15:00N 38°27' E 015°37'713.1
2019-Jul-19 14:29N 38°21' E 015°41'611.5
2019-Jul-19 14:00N 38°16' E 015°41'713.7
2019-Jul-19 13:30N 38°10' E 015°37'713.8
2019-Jul-19 13:00N 38°03' E 015°36'611.7
2019-Jul-19 12:29N 37°57' E 015°36'910.1
2019-Jul-19 11:33N 37°49' E 015°43'111.6
2019-Jul-19 11:30N 37°49' E 015°43'611.5
2019-Jul-19 11:00N 37°48' E 015°51'611.5
2019-Jul-19 10:30N 37°48' E 015°58'917.0
2019-Jul-19 10:00N 37°42' E 016°06'   100 / 51016.010.8 26.026.0
2019-Jul-15 06:17N 44°38' E 013°01'412.4
2019-Jul-15 06:00N 44°41' E 012°59'612.2
2019-Jul-15 05:30N 44°47' E 012°56'612.2
2019-Jul-15 04:58N 44°53' E 012°52'612.4
2019-Jul-15 04:30N 44°58' E 012°48'612.7
2019-Jul-15 04:00N 45°04' E 012°45'611.9
2019-Jul-15 03:30N 45°08' E 012°39'612.6
2019-Jul-15 03:00N 45°11' E 012°31'713.1
2019-Jul-15 02:31N 45°18' E 012°30'611.6
2019-Jul-15 02:00N 45°24' E 012°29'4 8.9
2019-Jul-15 01:31N 45°26' E 012°24'2 4.3
2019-Jul-15 01:00N 45°26' E 012°21'2 3.5
2019-Jul-15 00:30N 45°26' E 012°18'0 0.7
2019-Jul-14 23:58N 45°26' E 012°18'0 0.0
2019-Jul-14 23:28N 45°26' E 012°18'0 0.0
2019-Jul-14 22:58N 45°26' E 012°18'0 0.0
2019-Jul-14 22:28N 45°26' E 012°18'0 0.0
2019-Jul-14 21:58N 45°26' E 012°18'0 0.0
2019-Jul-14 21:28N 45°26' E 012°18'0 0.0
2019-Jul-14 20:58N 45°26' E 012°18'0 0.0
2019-Jul-14 20:28N 45°26' E 012°18'0 0.0
2019-Jul-14 19:58N 45°26' E 012°18'0 0.0
2019-Jul-14 19:28N 45°26' E 012°18'0 0.0
2019-Jul-14 18:58N 45°26' E 012°18'0 0.0
2019-Jul-14 18:28N 45°26' E 012°18'0 0.0
2019-Jul-14 17:58N 45°26' E 012°18'0 0.0
2019-Jul-14 17:28N 45°26' E 012°18'0 0.0
2019-Jul-14 16:58N 45°26' E 012°18'0 0.0
2019-Jul-14 16:28N 45°26' E 012°18'0 0.0
2019-Jul-14 15:58N 45°26' E 012°18'0 0.0
2019-Jul-14 15:28N 45°26' E 012°18'0 0.0
2019-Jul-14 14:58N 45°26' E 012°18'0 0.0
2019-Jul-14 14:28N 45°26' E 012°18'0 0.0
2019-Jul-14 13:58N 45°26' E 012°18'0 0.0
2019-Jul-14 13:28N 45°26' E 012°18'0 0.0
2019-Jul-14 12:58N 45°26' E 012°18'0 0.0
2019-Jul-14 12:28N 45°26' E 012°18'0 0.0
2019-Jul-14 11:55N 45°26' E 012°18'0 0.0
2019-Jul-14 11:28N 45°26' E 012°18'0 0.0
2019-Jul-14 10:58N 45°26' E 012°18'0 0.0
2019-Jul-14 10:28N 45°26' E 012°18'0 0.0
2019-Jul-14 09:58N 45°26' E 012°18'0 0.0
2019-Jul-14 09:28N 45°26' E 012°18'0 0.0
2019-Jul-14 08:58N 45°26' E 012°18'0 0.0
2019-Jul-14 08:28N 45°26' E 012°18'0 0.0
2019-Jul-14 07:58N 45°26' E 012°18'0 0.0
2019-Jul-14 07:28N 45°26' E 012°18'0 0.0
2019-Jul-14 06:58N 45°26' E 012°18'0 0.0
2019-Jul-14 06:28N 45°26' E 012°18'0 0.0
2019-Jul-14 05:58N 45°26' E 012°18'0 0.0
2019-Jul-14 05:28N 45°26' E 012°18'0 0.0
2019-Jul-14 04:58N 45°26' E 012°18'0 0.0
2019-Jul-14 04:28N 45°26' E 012°18'0 1.0
2019-Jul-14 04:00N 45°26' E 012°18'2 4.5
2019-Jul-14 03:30N 45°25' E 012°22'2 4.7
2019-Jul-14 03:00N 45°26' E 012°25'4 8.2
2019-Jul-14 02:30N 45°24' E 012°30'5 9.9
2019-Jul-14 02:00N 45°21' E 012°36'612.3
2019-Jul-14 01:30N 45°17' E 012°42'612.4
2019-Jul-14 01:00N 45°11' E 012°46'612.9
2019-Jul-14 00:30N 45°05' E 012°50'612.9
2019-Jul-14 00:00N 44°59' E 012°53'510.5
2019-Jul-13 23:30N 44°56' E 012°59'612.4
2019-Jul-13 23:00N 44°56' E 013°08'713.8
2019-Jul-13 22:30N 44°56' E 013°17'612.2
2019-Jul-13 22:00N 44°54' E 013°25'612.8
2019-Jul-13 21:30N 44°49' E 013°31'613.0
2019-Jul-13 21:00N 44°43' E 013°37'712.6
2019-Jul-13 20:29N 44°38' E 013°43'612.4
2019-Jul-13 20:00N 44°34' E 013°49'510.8
2019-Jul-13 19:30N 44°36' E 013°56'713.8
2019-Jul-13 19:01N 44°41' E 014°01'714.1
2019-Jul-13 18:30N 44°47' E 014°06'714.0
2019-Jul-13 18:00N 44°54' E 014°11'2 0.1
2019-Jul-13 05:12N 44°55' E 014°12'315.0
2019-Jul-13 04:58N 44°52' E 014°10'816.8
2019-Jul-13 04:30N 44°45' E 014°06'816.9
2019-Jul-13 04:01N 44°37' E 014°03'918.1
2019-Jul-13 03:31N 44°29' E 014°09'1218.2
2019-Jul-13 02:50N 44°18' E 014°17'2018.3
2019-Jul-13 01:44N 44°01' E 014°31'2027.2
2019-Jul-13 01:00N 43°42' E 014°42'   150 / 41010.010.8 23.018.3
Track history (hours):
 
Tides and Currents Weather Stations Pressure Air Temp Water Temp Dewpoint Dewpoint Depression Visibility Wind Speed Wind Dir Waves Ship Positions

Veendam (Netherlands)

Last reported at 2019-Jul-22 13:59 UTC. Time now 2019-Jul-22 14:22 UTC.
Position N 43°33' E 010°18'.

Type: Ship. MMSI: 246506000.

Date/timePositionNaut miles runAvg speedWind from/ knotsBaromVisibWave heightAir tempDewpointWater temp
2019-Jul-22 13:59N 43°33' E 010°18'0 0.0
2019-Jul-22 13:29N 43°33' E 010°18'0 0.0
2019-Jul-22 12:59N 43°33' E 010°18'0 0.0
2019-Jul-22 12:29N 43°33' E 010°18'0 0.0
2019-Jul-22 11:59N 43°33' E 010°18'0 0.0
2019-Jul-22 11:29N 43°33' E 010°18'0 0.0
2019-Jul-22 10:59N 43°33' E 010°18'0 0.0
2019-Jul-22 10:29N 43°33' E 010°18'0 0.0
2019-Jul-22 09:59N 43°33' E 010°18'0 0.0
2019-Jul-22 09:29N 43°33' E 010°18'0 0.0
2019-Jul-22 08:59N 43°33' E 010°18'0 0.0
2019-Jul-22 08:26N 43°33' E 010°18'0 0.0
2019-Jul-22 07:59N 43°33' E 010°18'0 0.0
2019-Jul-22 07:29N 43°33' E 010°18'0 0.0
2019-Jul-22 06:59N 43°33' E 010°18'0 0.0
2019-Jul-22 06:29N 43°33' E 010°18'0 0.0
2019-Jul-22 05:59N 43°33' E 010°18'0 0.0
2019-Jul-22 05:30N 43°33' E 010°18'1 2.9
2019-Jul-22 05:00N 43°32' E 010°16'5 9.8
2019-Jul-22 04:30N 43°28' E 010°13'510.0
2019-Jul-22 04:01N 43°23' E 010°12'713.9
2019-Jul-22 03:31N 43°16' E 010°09'815.9
2019-Jul-22 03:01N 43°09' E 010°07'713.7
2019-Jul-22 02:30N 43°02' E 010°05'714.0
2019-Jul-22 02:00N 42°55' E 010°03'816.6
2019-Jul-22 01:30N 42°47' E 010°02'816.2
2019-Jul-22 01:00N 42°40' E 010°08'816.7
2019-Jul-22 00:30N 42°33' E 010°15'816.8
2019-Jul-22 00:00N 42°27' E 010°23'816.9
2019-Jul-21 23:30N 42°21' E 010°31'816.2
2019-Jul-21 23:00N 42°14' E 010°37'1016.6
2019-Jul-21 22:26N 42°07' E 010°45'816.3
2019-Jul-21 21:58N 42°02' E 010°53'816.7
2019-Jul-21 21:30N 42°00' E 011°03'916.6
2019-Jul-21 20:58N 41°58' E 011°14'816.4
2019-Jul-21 20:29N 41°57' E 011°25'1115.8
2019-Jul-21 19:46N 42°04' E 011°37'8 0.7
2019-Jul-21 08:43N 42°06' E 011°46'0 0.0
2019-Jul-21 08:13N 42°06' E 011°46'0 0.0
2019-Jul-21 07:58N 42°06' E 011°46'0 0.0
2019-Jul-21 07:28N 42°06' E 011°46'0 0.0
2019-Jul-21 06:58N 42°06' E 011°46'0 0.0
2019-Jul-21 06:28N 42°06' E 011°46'0 0.0
2019-Jul-21 05:55N 42°06' E 011°46'0 0.0
2019-Jul-21 05:28N 42°06' E 011°46'0 0.0
2019-Jul-21 04:58N 42°06' E 011°46'0 0.0
2019-Jul-21 04:25N 42°06' E 011°46'0 0.0
2019-Jul-21 04:00N 42°06' E 011°46'3 3.7
2019-Jul-21 03:18N 42°06' E 011°43'1710.8
2019-Jul-21 01:45N 41°49' E 011°39'413.6
2019-Jul-21 01:28N 41°46' E 011°43'714.1
2019-Jul-21 01:00N 41°42' E 011°49'714.1
2019-Jul-21 00:30N 41°37' E 011°56'714.0
2019-Jul-21 00:00N 41°32' E 012°02'714.0
2019-Jul-20 23:30N 41°27' E 012°09'815.2
2019-Jul-20 23:00N 41°22' E 012°17'816.5
2019-Jul-20 22:30N 41°17' E 012°25'816.7
2019-Jul-20 22:01N 41°14' E 012°36'816.7
2019-Jul-20 21:31N 41°11' E 012°46'816.4
2019-Jul-20 21:00N 41°07' E 012°55'816.4
2019-Jul-20 20:30N 41°03' E 013°05'816.4
2019-Jul-20 20:01N 40°59' E 013°15'816.6
2019-Jul-20 19:30N 40°56' E 013°25'816.1
2019-Jul-20 19:01N 40°51' E 013°33'816.1
2019-Jul-20 18:30N 40°45' E 013°41'816.3
2019-Jul-20 18:00N 40°40' E 013°49'815.8
2019-Jul-20 17:31N 40°38' E 013°59'815.5
2019-Jul-20 17:00N 40°42' E 014°08'713.4
2019-Jul-20 16:30N 40°46' E 014°15'4 7.1
2019-Jul-20 15:58N 40°50' E 014°15'0 0.0
2019-Jul-20 15:28N 40°50' E 014°15'0 0.0
2019-Jul-20 14:58N 40°50' E 014°15'0 0.0
2019-Jul-20 14:28N 40°50' E 014°15'0 0.0
2019-Jul-20 13:58N 40°50' E 014°15'0 0.0
2019-Jul-20 13:28N 40°50' E 014°15'0 0.0
2019-Jul-20 12:58N 40°50' E 014°15'0 0.0
2019-Jul-20 12:28N 40°50' E 014°15'0 0.0
2019-Jul-20 11:58N 40°50' E 014°15'0 0.0
2019-Jul-20 11:28N 40°50' E 014°15'0 0.0
2019-Jul-20 10:58N 40°50' E 014°15'0 0.0
2019-Jul-20 10:28N 40°50' E 014°15'0 0.0
2019-Jul-20 09:58N 40°50' E 014°15'0 0.0
2019-Jul-20 09:28N 40°50' E 014°15'0 0.0
2019-Jul-20 09:00N 40°50' E 014°15'0 0.1
2019-Jul-20 08:29N 40°50' E 014°15'0 0.0
2019-Jul-20 07:59N 40°50' E 014°15'0 0.0
2019-Jul-20 07:29N 40°50' E 014°15'0 0.0
2019-Jul-20 06:59N 40°50' E 014°15'0 0.0
2019-Jul-20 06:29N 40°50' E 014°15'0 0.0
2019-Jul-20 06:00N 40°50' E 014°15'0 0.0
2019-Jul-20 05:31N 40°50' E 014°15'0 1.0
2019-Jul-20 05:01N 40°50' E 014°16'3 6.4
2019-Jul-20 04:30N 40°47' E 014°16'611.2
2019-Jul-20 04:00N 40°42' E 014°14'511.0
2019-Jul-20 03:30N 40°37' E 014°11'510.6
2019-Jul-20 03:00N 40°32' E 014°10'510.8
2019-Jul-20 02:30N 40°27' E 014°13'610.9
2019-Jul-20 02:00N 40°22' E 014°16'611.3
2019-Jul-20 01:31N 40°17' E 014°19'611.5
2019-Jul-20 01:01N 40°12' E 014°23'612.1
2019-Jul-20 00:29N 40°07' E 014°28'611.4
2019-Jul-20 00:01N 40°02' E 014°31'611.2
2019-Jul-19 23:29N 39°57' E 014°34'611.2
2019-Jul-19 22:57N 39°51' E 014°38'5811.8
2019-Jul-19 18:00N 38°60' E 015°14'612.0
2019-Jul-19 17:29N 38°54' E 015°17'612.0
2019-Jul-19 17:00N 38°49' E 015°21'611.8
2019-Jul-19 16:28N 38°44' E 015°25'612.8
2019-Jul-19 16:00N 38°38' E 015°28'713.1
2019-Jul-19 15:30N 38°33' E 015°32'713.0
2019-Jul-19 15:00N 38°27' E 015°37'713.1
2019-Jul-19 14:29N 38°21' E 015°41'611.5
2019-Jul-19 14:00N 38°16' E 015°41'713.7
2019-Jul-19 13:30N 38°10' E 015°37'713.8
2019-Jul-19 13:00N 38°03' E 015°36'611.7
2019-Jul-19 12:29N 37°57' E 015°36'910.1
2019-Jul-19 11:33N 37°49' E 015°43'111.6
2019-Jul-19 11:30N 37°49' E 015°43'611.5
2019-Jul-19 11:00N 37°48' E 015°51'611.5
2019-Jul-19 10:30N 37°48' E 015°58'917.0
2019-Jul-19 10:00N 37°42' E 016°06'   100 / 51016.010.8 26.026.0
2019-Jul-15 06:17N 44°38' E 013°01'412.4
2019-Jul-15 06:00N 44°41' E 012°59'612.2
2019-Jul-15 05:30N 44°47' E 012°56'612.2
2019-Jul-15 04:58N 44°53' E 012°52'612.4
2019-Jul-15 04:30N 44°58' E 012°48'612.7
2019-Jul-15 04:00N 45°04' E 012°45'611.9
2019-Jul-15 03:30N 45°08' E 012°39'612.6
2019-Jul-15 03:00N 45°11' E 012°31'713.1
2019-Jul-15 02:31N 45°18' E 012°30'611.6
2019-Jul-15 02:00N 45°24' E 012°29'4 8.9
2019-Jul-15 01:31N 45°26' E 012°24'2 4.3
2019-Jul-15 01:00N 45°26' E 012°21'2 3.5
2019-Jul-15 00:30N 45°26' E 012°18'0 0.7
2019-Jul-14 23:58N 45°26' E 012°18'0 0.0
2019-Jul-14 23:28N 45°26' E 012°18'0 0.0
2019-Jul-14 22:58N 45°26' E 012°18'0 0.0
2019-Jul-14 22:28N 45°26' E 012°18'0 0.0
2019-Jul-14 21:58N 45°26' E 012°18'0 0.0
2019-Jul-14 21:28N 45°26' E 012°18'0 0.0
2019-Jul-14 20:58N 45°26' E 012°18'0 0.0
2019-Jul-14 20:28N 45°26' E 012°18'0 0.0
2019-Jul-14 19:58N 45°26' E 012°18'0 0.0
2019-Jul-14 19:28N 45°26' E 012°18'0 0.0
2019-Jul-14 18:58N 45°26' E 012°18'0 0.0
2019-Jul-14 18:28N 45°26' E 012°18'0 0.0
2019-Jul-14 17:58N 45°26' E 012°18'0 0.0
2019-Jul-14 17:28N 45°26' E 012°18'0 0.0
2019-Jul-14 16:58N 45°26' E 012°18'0 0.0
2019-Jul-14 16:28N 45°26' E 012°18'0 0.0
2019-Jul-14 15:58N 45°26' E 012°18'0 0.0
2019-Jul-14 15:28N 45°26' E 012°18'0 0.0
2019-Jul-14 14:58N 45°26' E 012°18'0 0.0
2019-Jul-14 14:28N 45°26' E 012°18'0 0.0
2019-Jul-14 13:58N 45°26' E 012°18'0 0.0
2019-Jul-14 13:28N 45°26' E 012°18'0 0.0
2019-Jul-14 12:58N 45°26' E 012°18'0 0.0
2019-Jul-14 12:28N 45°26' E 012°18'0 0.0
2019-Jul-14 11:55N 45°26' E 012°18'0 0.0
2019-Jul-14 11:28N 45°26' E 012°18'0 0.0
2019-Jul-14 10:58N 45°26' E 012°18'0 0.0
2019-Jul-14 10:28N 45°26' E 012°18'0 0.0
2019-Jul-14 09:58N 45°26' E 012°18'0 0.0
2019-Jul-14 09:28N 45°26' E 012°18'0 0.0
2019-Jul-14 08:58N 45°26' E 012°18'0 0.0
2019-Jul-14 08:28N 45°26' E 012°18'0 0.0
2019-Jul-14 07:58N 45°26' E 012°18'0 0.0
2019-Jul-14 07:28N 45°26' E 012°18'0 0.0
2019-Jul-14 06:58N 45°26' E 012°18'0 0.0
2019-Jul-14 06:28N 45°26' E 012°18'0 0.0
2019-Jul-14 05:58N 45°26' E 012°18'0 0.0
2019-Jul-14 05:28N 45°26' E 012°18'0 0.0
2019-Jul-14 04:58N 45°26' E 012°18'0 0.0
2019-Jul-14 04:28N 45°26' E 012°18'0 1.0
2019-Jul-14 04:00N 45°26' E 012°18'2 4.5
2019-Jul-14 03:30N 45°25' E 012°22'2 4.7
2019-Jul-14 03:00N 45°26' E 012°25'4 8.2
2019-Jul-14 02:30N 45°24' E 012°30'5 9.9
2019-Jul-14 02:00N 45°21' E 012°36'612.3
2019-Jul-14 01:30N 45°17' E 012°42'612.4
2019-Jul-14 01:00N 45°11' E 012°46'612.9
2019-Jul-14 00:30N 45°05' E 012°50'612.9
2019-Jul-14 00:00N 44°59' E 012°53'510.5
2019-Jul-13 23:30N 44°56' E 012°59'612.4
2019-Jul-13 23:00N 44°56' E 013°08'713.8
2019-Jul-13 22:30N 44°56' E 013°17'612.2
2019-Jul-13 22:00N 44°54' E 013°25'612.8
2019-Jul-13 21:30N 44°49' E 013°31'613.0
2019-Jul-13 21:00N 44°43' E 013°37'712.6
2019-Jul-13 20:29N 44°38' E 013°43'612.4
2019-Jul-13 20:00N 44°34' E 013°49'510.8
2019-Jul-13 19:30N 44°36' E 013°56'713.8
2019-Jul-13 19:01N 44°41' E 014°01'714.1
2019-Jul-13 18:30N 44°47' E 014°06'714.0
2019-Jul-13 18:00N 44°54' E 014°11'2 0.1
2019-Jul-13 05:12N 44°55' E 014°12'315.0
2019-Jul-13 04:58N 44°52' E 014°10'816.8
2019-Jul-13 04:30N 44°45' E 014°06'816.9
2019-Jul-13 04:01N 44°37' E 014°03'918.1
2019-Jul-13 03:31N 44°29' E 014°09'1218.2
2019-Jul-13 02:50N 44°18' E 014°17'2018.3
2019-Jul-13 01:44N 44°01' E 014°31'2027.2
2019-Jul-13 01:00N 43°42' E 014°42'   150 / 41010.010.8 23.018.3

Dump ship's entire track history